Time;durP1;ratioP1;P1;durP2;ratioP2;P2;SDS_P1;SDS_P2;PMS_P1;PMS_P2;Temp;Humidity;BMP_temperature;BMP_pressure;BME280_temperature;BME280_humidity;BME280_pressure;Samples;Min_cycle;Max_cycle;Signal;HPM_P1;HPM_P2
2023/05/26 00:00:18;;;;;;;4.23;3.30;;;;;;;;;;5078187;28;20750;-64
2023/05/26 00:02:46;;;;;;;3.83;3.27;;;;;;;;;;5078573;28;20238;-63
2023/05/26 00:05:16;;;;;;;4.30;3.20;;;;;;;;;;5078405;28;20751;-65
2023/05/26 00:07:44;;;;;;;9.53;3.13;;;;;;;;;;5070842;28;20278;-62
2023/05/26 00:10:12;;;;;;;4.10;3.30;;;;;;;;;;5078115;28;20226;-63
2023/05/26 00:12:40;;;;;;;4.63;3.00;;;;;;;;;;5077905;28;20657;-63
2023/05/26 00:15:09;;;;;;;5.37;3.33;;;;;;;;;;5078370;28;20226;-62
2023/05/26 00:17:38;;;;;;;5.33;3.50;;;;;;;;;;5078133;28;20255;-62
2023/05/26 00:20:10;;;;;;;4.77;2.67;;;;;;;;;;5078131;28;20570;-62
2023/05/26 00:22:38;;;;;;;5.27;3.30;;;;;;;;;;5078050;28;20206;-62
2023/05/26 00:25:07;;;;;;;7.23;3.37;;;;;;;;;;5077915;28;20240;-62
2023/05/26 00:27:35;;;;;;;6.10;3.50;;;;;;;;;;5077660;28;20597;-63
2023/05/26 00:30:04;;;;;;;7.33;3.87;;;;;;;;;;5078146;28;20244;-62
2023/05/26 00:32:31;;;;;;;7.50;3.43;;;;;;;;;;5078148;28;20206;-62
2023/05/26 00:35:01;;;;;;;5.47;3.17;;;;;;;;;;5077896;28;20206;-62
2023/05/26 00:37:29;;;;;;;4.17;3.60;;;;;;;;;;5077774;28;20631;-62
2023/05/26 00:39:57;;;;;;;5.70;3.53;;;;;;;;;;5078003;28;20213;-63
2023/05/26 00:42:25;;;;;;;4.30;3.63;;;;;;;;;;5077840;28;20209;-62
2023/05/26 00:44:53;;;;;;;5.20;3.70;;;;;;;;;;5077967;28;20271;-62
2023/05/26 00:47:21;;;;;;;4.37;3.50;;;;;;;;;;5078003;28;20211;-62
2023/05/26 00:49:50;;;;;;;4.80;3.60;;;;;;;;;;5077672;28;20661;-61
2023/05/26 00:52:20;;;;;;;6.77;3.67;;;;;;;;;;5077662;28;20233;-62
2023/05/26 00:54:48;;;;;;;4.73;3.40;;;;;;;;;;5077423;28;20210;-62
2023/05/26 00:57:16;;;;;;;4.87;3.57;;;;;;;;;;5077671;28;20229;-62
2023/05/26 00:59:45;;;;;;;6.10;3.53;;;;;;;;;;5077346;28;20604;-63
2023/05/26 01:02:14;;;;;;;7.97;3.50;;;;;;;;;;5077497;28;20238;-63
2023/05/26 01:04:43;;;;;;;4.73;3.73;;;;;;;;;;5077517;28;20577;-63
2023/05/26 01:07:11;;;;;;;6.80;3.60;;;;;;;;;;5077730;28;20275;-63
2023/05/26 01:09:40;;;;;;;6.40;4.07;;;;;;;;;;5077637;28;20206;-64
2023/05/26 01:12:09;;;;;;;4.50;3.27;;;;;;;;;;5077204;28;20230;-63
2023/05/26 01:14:41;;;;;;;5.00;3.67;;;;;;;;;;5077732;28;20260;-63
2023/05/26 01:17:13;;;;;;;6.23;3.80;;;;;;;;;;5077739;28;20226;-63
2023/05/26 01:19:58;;;;;;;5.60;3.60;;;;;;;;;;5077439;28;20206;-63
2023/05/26 01:22:37;;;;;;;8.20;3.23;;;;;;;;;;5077447;28;20243;-63
2023/05/26 01:25:18;;;;;;;8.90;3.83;;;;;;;;;;5076981;28;20650;-63
2023/05/26 01:27:47;;;;;;;5.93;3.63;;;;;;;;;;5077283;28;20359;-64
2023/05/26 01:30:17;;;;;;;5.03;3.77;;;;;;;;;;5077567;28;20202;-63
2023/05/26 01:32:48;;;;;;;6.63;3.33;;;;;;;;;;5077638;28;20209;-63
2023/05/26 01:35:16;;;;;;;7.73;3.90;;;;;;;;;;5077298;28;20269;-65
2023/05/26 01:37:45;;;;;;;6.53;3.73;;;;;;;;;;5077594;28;20210;-64
2023/05/26 01:40:13;;;;;;;4.97;3.60;;;;;;;;;;5077075;28;20210;-64
2023/05/26 01:42:43;;;;;;;5.53;3.67;;;;;;;;;;5077236;28;20202;-63
2023/05/26 01:45:12;;;;;;;6.27;4.27;;;;;;;;;;5077099;28;20701;-65
2023/05/26 01:47:42;;;;;;;4.13;3.20;;;;;;;;;;5077645;28;20206;-63
2023/05/26 01:50:12;;;;;;;5.90;3.73;;;;;;;;;;5077654;28;20210;-62
2023/05/26 01:52:42;;;;;;;7.57;3.80;;;;;;;;;;5077111;28;20230;-64
2023/05/26 01:55:12;;;;;;;8.37;3.97;;;;;;;;;;5077160;28;20226;-63
2023/05/26 01:57:42;;;;;;;3.77;3.47;;;;;;;;;;5076828;28;20206;-63
2023/05/26 02:00:11;;;;;;;3.83;3.40;;;;;;;;;;5077056;28;20233;-62
2023/05/26 02:02:40;;;;;;;5.00;4.00;;;;;;;;;;5077171;28;20607;-63
2023/05/26 02:05:09;;;;;;;8.67;3.73;;;;;;;;;;5077356;28;20229;-63
2023/05/26 02:07:38;;;;;;;5.53;3.90;;;;;;;;;;5074815;28;20239;-63
2023/05/26 02:10:07;;;;;;;5.17;3.83;;;;;;;;;;5068729;28;20213;-63
2023/05/26 02:12:34;;;;;;;4.73;3.63;;;;;;;;;;5079672;28;20226;-63
2023/05/26 02:15:03;;;;;;;4.30;3.57;;;;;;;;;;5080862;28;20210;-64
2023/05/26 02:17:31;;;;;;;7.70;3.57;;;;;;;;;;5080705;28;20232;-63
2023/05/26 02:19:59;;;;;;;6.47;3.93;;;;;;;;;;5080516;28;20202;-63
2023/05/26 02:22:28;;;;;;;6.00;3.70;;;;;;;;;;5080609;28;20240;-64
2023/05/26 02:24:57;;;;;;;7.40;3.40;;;;;;;;;;5080354;28;20202;-64
2023/05/26 02:27:25;;;;;;;5.50;3.60;;;;;;;;;;5080232;28;20202;-64
2023/05/26 02:29:53;;;;;;;5.43;3.77;;;;;;;;;;5080643;28;20238;-64
2023/05/26 02:32:21;;;;;;;5.37;4.13;;;;;;;;;;5080187;28;20226;-64
2023/05/26 02:34:49;;;;;;;6.10;3.80;;;;;;;;;;5080304;28;20214;-64
2023/05/26 02:37:18;;;;;;;8.63;3.70;;;;;;;;;;5080165;28;20216;-64
2023/05/26 02:39:47;;;;;;;5.23;3.77;;;;;;;;;;5080013;28;20228;-64
2023/05/26 02:42:15;;;;;;;6.87;4.37;;;;;;;;;;5080005;28;20198;-63
2023/05/26 02:44:43;;;;;;;5.10;3.63;;;;;;;;;;5080340;28;20206;-63
2023/05/26 02:47:11;;;;;;;4.90;3.80;;;;;;;;;;5080096;28;20241;-64
2023/05/26 02:49:39;;;;;;;6.20;3.80;;;;;;;;;;5080146;28;20202;-64
2023/05/26 02:52:07;;;;;;;6.37;4.30;;;;;;;;;;5080157;28;20230;-63
2023/05/26 02:54:35;;;;;;;6.33;3.83;;;;;;;;;;5079658;28;20901;-64
2023/05/26 02:57:05;;;;;;;5.43;4.03;;;;;;;;;;5079613;28;20250;-64
2023/05/26 02:59:33;;;;;;;5.90;4.27;;;;;;;;;;5079810;28;20232;-64
2023/05/26 03:02:01;;;;;;;9.10;4.53;;;;;;;;;;5079603;28;20232;-64
2023/05/26 03:04:30;;;;;;;5.13;3.87;;;;;;;;;;5079846;28;20277;-64
2023/05/26 03:06:59;;;;;;;5.33;3.67;;;;;;;;;;5079465;28;20233;-64
2023/05/26 03:09:27;;;;;;;6.47;4.00;;;;;;;;;;5079383;28;20212;-64
2023/05/26 03:11:54;;;;;;;5.83;4.37;;;;;;;;;;5079481;28;20233;-64
2023/05/26 03:14:25;;;;;;;6.43;4.60;;;;;;;;;;5079603;28;20207;-63
2023/05/26 03:16:53;;;;;;;5.40;3.80;;;;;;;;;;5079658;28;20226;-63
2023/05/26 03:19:21;;;;;;;8.20;4.30;;;;;;;;;;5079248;28;20669;-64
2023/05/26 03:21:49;;;;;;;6.37;4.53;;;;;;;;;;5079250;28;20562;-63
2023/05/26 03:24:17;;;;;;;7.73;4.23;;;;;;;;;;5079106;28;20213;-63
2023/05/26 03:26:45;;;;;;;5.53;4.13;;;;;;;;;;5079218;28;20222;-64
2023/05/26 03:29:13;;;;;;;4.30;3.90;;;;;;;;;;5079616;28;20244;-63
2023/05/26 03:31:43;;;;;;;5.73;4.03;;;;;;;;;;5079334;28;20222;-64
2023/05/26 03:34:11;;;;;;;7.10;4.40;;;;;;;;;;5079029;28;20233;-64
2023/05/26 03:36:39;;;;;;;8.03;4.67;;;;;;;;;;5079222;28;20230;-63
2023/05/26 03:39:07;;;;;;;8.10;4.00;;;;;;;;;;5078936;28;20594;-63
2023/05/26 03:41:36;;;;;;;7.80;4.27;;;;;;;;;;5078716;28;20610;-64
2023/05/26 03:44:05;;;;;;;5.87;4.20;;;;;;;;;;5079045;28;20256;-62
2023/05/26 03:46:33;;;;;;;6.23;3.97;;;;;;;;;;5078796;28;20226;-62
2023/05/26 03:49:03;;;;;;;7.63;4.03;;;;;;;;;;5078929;28;20289;-64
2023/05/26 03:51:31;;;;;;;5.33;4.43;;;;;;;;;;5078624;28;20263;-64
2023/05/26 03:53:59;;;;;;;7.73;4.80;;;;;;;;;;5078489;28;20206;-63
2023/05/26 03:56:27;;;;;;;6.47;3.80;;;;;;;;;;5078449;28;20569;-64
2023/05/26 03:58:55;;;;;;;5.27;4.40;;;;;;;;;;5078523;28;20261;-64
2023/05/26 04:01:24;;;;;;;10.03;4.37;;;;;;;;;;5078527;28;20240;-63
2023/05/26 04:03:52;;;;;;;7.43;4.43;;;;;;;;;;5078598;28;20207;-64
2023/05/26 04:06:22;;;;;;;6.03;4.23;;;;;;;;;;5078316;28;20291;-64
2023/05/26 04:08:50;;;;;;;6.50;4.13;;;;;;;;;;5077500;28;20577;-64
2023/05/26 04:11:18;;;;;;;7.97;4.80;;;;;;;;;;5065606;28;20715;-64
2023/05/26 04:13:46;;;;;;;6.93;4.43;;;;;;;;;;5078152;28;20229;-63
2023/05/26 04:16:14;;;;;;;6.43;4.73;;;;;;;;;;5078227;28;20228;-63
2023/05/26 04:18:42;;;;;;;6.07;4.13;;;;;;;;;;5078087;28;20205;-64
2023/05/26 04:21:10;;;;;;;7.63;4.43;;;;;;;;;;5078427;28;20209;-64
2023/05/26 04:23:40;;;;;;;6.77;4.80;;;;;;;;;;5077987;28;20544;-64
2023/05/26 04:26:08;;;;;;;5.77;4.47;;;;;;;;;;5078242;28;20250;-64
2023/05/26 04:28:36;;;;;;;10.23;4.60;;;;;;;;;;5078118;28;20270;-64
2023/05/26 04:31:04;;;;;;;5.60;4.67;;;;;;;;;;5078310;28;20228;-64
2023/05/26 04:33:32;;;;;;;7.83;4.63;;;;;;;;;;5077595;28;20589;-64
2023/05/26 04:36:00;;;;;;;9.43;4.33;;;;;;;;;;5078123;28;20230;-64
2023/05/26 04:38:28;;;;;;;6.60;4.97;;;;;;;;;;5078017;28;20206;-64
2023/05/26 04:40:57;;;;;;;5.30;4.77;;;;;;;;;;5078106;28;20244;-64
2023/05/26 04:43:25;;;;;;;6.57;4.60;;;;;;;;;;5077900;28;20247;-64
2023/05/26 04:45:55;;;;;;;6.57;4.57;;;;;;;;;;5078120;28;20263;-64
2023/05/26 04:48:23;;;;;;;7.70;4.83;;;;;;;;;;5077607;28;20210;-62
2023/05/26 04:50:53;;;;;;;5.40;4.40;;;;;;;;;;5076162;28;20202;-62
2023/05/26 04:53:21;;;;;;;7.27;5.10;;;;;;;;;;5077270;28;20621;-62
2023/05/26 04:55:49;;;;;;;7.80;5.30;;;;;;;;;;5077284;28;20264;-64
2023/05/26 04:58:18;;;;;;;7.37;4.93;;;;;;;;;;5075698;28;20232;-62
2023/05/26 05:00:46;;;;;;;7.47;5.43;;;;;;;;;;5077134;28;20268;-62
2023/05/26 05:03:15;;;;;;;5.73;4.37;;;;;;;;;;5077081;28;20202;-62
2023/05/26 05:05:43;;;;;;;8.17;4.77;;;;;;;;;;5076461;28;20729;-62
2023/05/26 05:08:11;;;;;;;11.63;4.70;;;;;;;;;;5077230;28;20202;-61
2023/05/26 05:10:39;;;;;;;6.97;4.90;;;;;;;;;;5077466;28;20248;-62
2023/05/26 05:13:07;;;;;;;9.37;4.97;;;;;;;;;;5077021;28;20222;-61
2023/05/26 05:15:37;;;;;;;6.53;4.80;;;;;;;;;;5078226;28;20263;-62
2023/05/26 05:18:05;;;;;;;5.20;4.17;;;;;;;;;;5081181;28;20198;-62
2023/05/26 05:20:33;;;;;;;7.33;4.33;;;;;;;;;;5076222;28;20209;-61
2023/05/26 05:23:02;;;;;;;8.30;4.13;;;;;;;;;;5076864;28;20199;-62
2023/05/26 05:25:30;;;;;;;6.10;4.50;;;;;;;;;;5073961;28;20221;-62
2023/05/26 05:27:58;;;;;;;6.73;4.77;;;;;;;;;;5073744;28;20206;-62
2023/05/26 05:30:27;;;;;;;7.40;4.87;;;;;;;;;;5076404;28;20202;-61
2023/05/26 05:32:57;;;;;;;7.27;5.00;;;;;;;;;;5076380;28;20682;-61
2023/05/26 05:35:25;;;;;;;10.13;5.37;;;;;;;;;;5076027;28;20305;-61
2023/05/26 05:37:56;;;;;;;7.00;4.33;;;;;;;;;;5075943;28;20264;-61
2023/05/26 05:40:24;;;;;;;5.70;4.70;;;;;;;;;;5075853;28;20251;-61
2023/05/26 05:42:52;;;;;;;8.70;4.90;;;;;;;;;;5075560;28;20202;-62
2023/05/26 05:45:21;;;;;;;8.57;4.53;;;;;;;;;;5076142;28;20261;-62
2023/05/26 05:47:49;;;;;;;8.23;4.53;;;;;;;;;;5079398;28;20210;-60
2023/05/26 05:50:19;;;;;;;9.77;6.23;;;;;;;;;;5079995;28;20210;-61
2023/05/26 05:52:47;;;;;;;10.17;5.37;;;;;;;;;;5079591;28;20686;-61
2023/05/26 05:55:15;;;;;;;5.40;4.43;;;;;;;;;;5080524;28;20218;-61
2023/05/26 05:57:43;;;;;;;6.97;4.60;;;;;;;;;;5079994;28;20198;-61
2023/05/26 06:00:11;;;;;;;10.33;5.00;;;;;;;;;;5080326;28;20202;-63
2023/05/26 06:02:39;;;;;;;10.77;4.83;;;;;;;;;;5037800;28;20301;-63
2023/05/26 06:05:08;;;;;;;6.90;4.80;;;;;;;;;;5036522;28;20243;-63
2023/05/26 06:07:38;;;;;;;4.90;4.40;;;;;;;;;;5039486;28;20199;-63
2023/05/26 06:10:07;;;;;;;7.67;5.77;;;;;;;;;;5040261;28;20203;-62
2023/05/26 06:12:35;;;;;;;7.57;4.80;;;;;;;;;;5040446;28;20265;-63
2023/05/26 06:15:03;;;;;;;13.83;5.10;;;;;;;;;;5040114;28;20259;-63
2023/05/26 06:17:31;;;;;;;5.43;4.77;;;;;;;;;;5039891;28;20246;-67
2023/05/26 06:19:59;;;;;;;8.97;4.80;;;;;;;;;;5039996;28;20200;-66
2023/05/26 06:22:27;;;;;;;6.47;4.80;;;;;;;;;;5036661;28;20211;-66
2023/05/26 06:24:57;;;;;;;11.50;5.23;;;;;;;;;;5027085;28;20200;-66
2023/05/26 06:27:25;;;;;;;8.87;5.17;;;;;;;;;;5040341;28;20211;-66
2023/05/26 06:29:53;;;;;;;10.63;5.07;;;;;;;;;;5040577;28;20216;-66
2023/05/26 06:32:21;;;;;;;7.53;5.17;;;;;;;;;;5040185;28;20211;-65
2023/05/26 06:34:48;;;;;;;8.70;5.07;;;;;;;;;;5037306;28;20230;-66
2023/05/26 06:37:16;;;;;;;7.47;5.30;;;;;;;;;;5039730;28;20682;-66
2023/05/26 06:39:44;;;;;;;7.87;4.57;;;;;;;;;;5036324;28;20203;-65
2023/05/26 06:42:14;;;;;;;9.03;4.77;;;;;;;;;;5034835;28;20200;-65
2023/05/26 06:44:42;;;;;;;6.83;4.63;;;;;;;;;;5039721;28;20195;-64
2023/05/26 06:47:10;;;;;;;6.57;4.90;;;;;;;;;;5039634;28;20227;-64
2023/05/26 06:49:38;;;;;;;6.97;4.67;;;;;;;;;;5039490;28;20537;-66
2023/05/26 06:52:06;;;;;;;8.33;4.67;;;;;;;;;;5039721;28;20207;-66
2023/05/26 06:54:34;;;;;;;11.30;4.77;;;;;;;;;;5036902;28;20717;-65
2023/05/26 06:57:02;;;;;;;9.77;5.20;;;;;;;;;;5038788;28;20262;-64
2023/05/26 06:59:32;;;;;;;6.47;4.53;;;;;;;;;;5039539;28;20250;-64
2023/05/26 07:02:00;;;;;;;13.50;6.20;;;;;;;;;;5068607;28;20249;-63
2023/05/26 07:04:28;;;;;;;8.33;5.30;;;;;;;;;;5079819;28;20205;-63
2023/05/26 07:06:56;;;;;;;7.47;4.47;;;;;;;;;;5079482;28;20225;-65
2023/05/26 07:09:24;;;;;;;7.23;5.27;;;;;;;;;;5077075;28;20198;-64
2023/05/26 07:11:52;;;;;;;7.77;4.90;;;;;;;;;;5080186;28;20198;-63
2023/05/26 07:14:20;;;;;;;8.50;4.83;;;;;;;;;;5080348;28;20218;-64
2023/05/26 07:16:50;;;;;;;6.70;4.73;;;;;;;;;;5078099;28;20222;-63
2023/05/26 07:19:18;;;;;;;6.87;4.83;;;;;;;;;;5079704;28;20202;-64
2023/05/26 07:21:46;;;;;;;9.33;4.27;;;;;;;;;;5079905;28;20205;-65
2023/05/26 07:24:15;;;;;;;5.83;4.30;;;;;;;;;;5079887;28;20198;-64
2023/05/26 07:26:43;;;;;;;10.53;4.50;;;;;;;;;;5079263;28;20223;-65
2023/05/26 07:29:11;;;;;;;9.17;4.80;;;;;;;;;;5079335;28;20243;-63
2023/05/26 07:31:39;;;;;;;7.90;4.83;;;;;;;;;;5079282;28;20202;-64
2023/05/26 07:34:10;;;;;;;8.03;4.60;;;;;;;;;;5076603;28;20236;-64
2023/05/26 07:36:38;;;;;;;8.67;4.83;;;;;;;;;;5078972;28;20218;-64
2023/05/26 07:39:07;;;;;;;6.00;4.87;;;;;;;;;;5076782;28;20229;-63
2023/05/26 07:41:35;;;;;;;8.43;4.60;;;;;;;;;;5079026;28;20230;-65
2023/05/26 07:44:11;;;;;;;7.87;4.70;;;;;;;;;;5079184;28;20198;-63
2023/05/26 07:46:44;;;;;;;7.50;4.80;;;;;;;;;;5078832;28;20237;-64
2023/05/26 07:49:24;;;;;;;6.17;4.70;;;;;;;;;;5079063;28;20202;-63
2023/05/26 07:51:53;;;;;;;8.23;5.20;;;;;;;;;;5077811;28;20255;-65
2023/05/26 07:54:41;;;;;;;9.27;5.23;;;;;;;;;;5077294;28;20214;-65
2023/05/26 07:57:13;;;;;;;8.33;4.80;;;;;;;;;;5076799;28;20297;-64
2023/05/26 08:00:03;;;;;;;7.53;4.20;;;;;;;;;;5077282;28;20240;-63
2023/05/26 08:02:42;;;;;;;9.63;4.60;;;;;;;;;;5078568;28;20255;-65
2023/05/26 08:05:17;;;;;;;8.90;5.10;;;;;;;;;;5077108;28;20218;-63
2023/05/26 08:07:56;;;;;;;7.10;4.63;;;;;;;;;;5077014;28;20247;-65
2023/05/26 08:10:24;;;;;;;8.87;4.97;;;;;;;;;;5077278;28;20198;-63
2023/05/26 08:12:53;;;;;;;11.43;5.00;;;;;;;;;;5077467;28;20258;-63
2023/05/26 08:15:21;;;;;;;9.63;5.47;;;;;;;;;;5077536;28;20705;-64
2023/05/26 08:17:49;;;;;;;14.00;7.30;;;;;;;;;;5077706;28;20210;-63
2023/05/26 08:20:19;;;;;;;9.40;5.03;;;;;;;;;;5074571;28;20242;-63
2023/05/26 08:22:48;;;;;;;7.20;5.30;;;;;;;;;;5075358;28;20241;-64
2023/05/26 08:25:16;;;;;;;8.87;5.63;;;;;;;;;;5077042;28;20703;-63
2023/05/26 08:27:44;;;;;;;7.43;5.17;;;;;;;;;;5076925;28;20584;-63
2023/05/26 08:30:12;;;;;;;11.37;5.17;;;;;;;;;;5077921;28;20235;-63
2023/05/26 08:32:40;;;;;;;9.67;5.03;;;;;;;;;;5077556;28;20198;-64
2023/05/26 08:35:09;;;;;;;11.37;5.23;;;;;;;;;;5076086;28;20704;-65
2023/05/26 08:37:38;;;;;;;11.17;5.40;;;;;;;;;;5074814;28;20198;-65
2023/05/26 08:40:07;;;;;;;12.40;5.57;;;;;;;;;;5077297;28;20661;-64
2023/05/26 08:42:37;;;;;;;7.67;5.33;;;;;;;;;;5077286;28;20197;-64
2023/05/26 08:45:06;;;;;;;9.20;5.67;;;;;;;;;;5077521;28;20248;-64
2023/05/26 08:47:34;;;;;;;12.90;5.80;;;;;;;;;;5077484;28;20259;-63
2023/05/26 08:50:03;;;;;;;8.37;5.03;;;;;;;;;;5077625;28;20233;-63
2023/05/26 08:52:32;;;;;;;6.33;4.93;;;;;;;;;;5077676;28;20202;-63
2023/05/26 08:55:02;;;;;;;8.90;6.30;;;;;;;;;;5077126;28;20221;-64
2023/05/26 08:57:31;;;;;;;8.87;5.23;;;;;;;;;;5075120;28;20285;-64
2023/05/26 08:59:59;;;;;;;8.97;5.40;;;;;;;;;;5077218;28;20198;-63
2023/05/26 09:02:27;;;;;;;10.10;5.40;;;;;;;;;;5077089;28;20272;-64
2023/05/26 09:04:55;;;;;;;9.53;5.37;;;;;;;;;;5077238;28;20202;-63
2023/05/26 09:07:23;;;;;;;6.63;4.77;;;;;;;;;;5077456;28;20202;-64
2023/05/26 09:10:02;;;;;;;9.03;5.53;;;;;;;;;;5076935;28;20650;-63
2023/05/26 09:12:37;;;;;;;9.30;5.80;;;;;;;;;;5074714;28;20205;-64
2023/05/26 09:15:05;;;;;;;9.07;5.37;;;;;;;;;;5060414;28;20261;-63
2023/05/26 09:17:33;;;;;;;8.43;5.03;;;;;;;;;;5074487;28;20214;-64
2023/05/26 09:20:01;;;;;;;6.77;4.93;;;;;;;;;;5078272;28;20222;-63
2023/05/26 09:22:33;;;;;;;11.00;5.60;;;;;;;;;;5081698;28;20737;-64
2023/05/26 09:25:01;;;;;;;7.93;5.77;;;;;;;;;;5080633;28;20204;-65
2023/05/26 09:27:29;;;;;;;6.93;5.13;;;;;;;;;;5081017;28;20206;-64
2023/05/26 09:30:00;;;;;;;11.00;5.97;;;;;;;;;;5081589;28;20208;-64
2023/05/26 09:32:29;;;;;;;7.50;5.13;;;;;;;;;;5081672;28;20206;-64
2023/05/26 09:34:58;;;;;;;6.37;4.90;;;;;;;;;;5081640;28;20228;-64
2023/05/26 09:37:29;;;;;;;9.87;6.07;;;;;;;;;;5082101;28;20202;-64
2023/05/26 09:40:06;;;;;;;14.97;6.60;;;;;;;;;;5080995;28;20261;-65
2023/05/26 09:42:36;;;;;;;10.00;5.90;;;;;;;;;;5080801;28;20217;-65
2023/05/26 09:45:05;;;;;;;8.27;5.93;;;;;;;;;;5080871;28;20203;-65
2023/05/26 09:47:35;;;;;;;9.23;4.93;;;;;;;;;;5081010;28;20212;-64
2023/05/26 09:50:03;;;;;;;11.77;6.10;;;;;;;;;;5081078;28;20323;-65
2023/05/26 09:52:32;;;;;;;7.03;5.00;;;;;;;;;;5081264;28;20212;-65
2023/05/26 09:55:00;;;;;;;10.70;9.60;;;;;;;;;;5080809;28;20232;-65
2023/05/26 09:57:28;;;;;;;10.63;5.20;;;;;;;;;;5080519;28;20205;-65
2023/05/26 09:59:57;;;;;;;8.10;5.47;;;;;;;;;;5080885;28;20293;-66
2023/05/26 10:02:27;;;;;;;6.67;5.67;;;;;;;;;;5080574;28;20249;-66
2023/05/26 10:04:55;;;;;;;8.57;5.93;;;;;;;;;;5080605;28;20214;-66
2023/05/26 10:07:23;;;;;;;7.20;5.23;;;;;;;;;;5080846;28;20296;-65
2023/05/26 10:09:53;;;;;;;10.47;5.77;;;;;;;;;;5080703;28;20209;-66
2023/05/26 10:12:23;;;;;;;7.23;5.13;;;;;;;;;;5080616;28;20211;-66
2023/05/26 10:14:53;;;;;;;6.87;5.23;;;;;;;;;;5080692;28;20233;-66
2023/05/26 10:17:22;;;;;;;7.63;5.07;;;;;;;;;;5080601;28;20251;-66
2023/05/26 10:19:55;;;;;;;7.00;5.20;;;;;;;;;;5080898;28;20298;-66
2023/05/26 10:22:25;;;;;;;11.00;5.40;;;;;;;;;;5080775;28;20206;-65
2023/05/26 10:24:56;;;;;;;7.90;5.20;;;;;;;;;;5080324;28;20235;-65
2023/05/26 10:27:34;;;;;;;8.43;5.43;;;;;;;;;;5079912;28;20571;-65
2023/05/26 10:30:08;;;;;;;8.63;5.13;;;;;;;;;;5080282;28;20209;-63
2023/05/26 10:32:45;;;;;;;7.13;5.20;;;;;;;;;;5079645;28;20231;-64
2023/05/26 10:35:28;;;;;;;8.93;5.00;;;;;;;;;;5080502;28;20227;-63
2023/05/26 10:38:10;;;;;;;12.57;6.00;;;;;;;;;;5079167;28;20239;-64
2023/05/26 10:40:39;;;;;;;9.67;5.47;;;;;;;;;;5080262;28;20258;-65
2023/05/26 10:43:14;;;;;;;6.40;4.77;;;;;;;;;;5079878;28;20218;-66
2023/05/26 10:45:46;;;;;;;7.03;5.13;;;;;;;;;;5079928;28;20232;-65
2023/05/26 10:48:14;;;;;;;5.80;4.90;;;;;;;;;;5080308;28;20208;-65
2023/05/26 10:51:00;;;;;;;9.00;5.37;;;;;;;;;;5079799;28;20211;-64
2023/05/26 10:53:32;;;;;;;6.67;5.27;;;;;;;;;;5079980;28;20206;-65
2023/05/26 10:56:02;;;;;;;9.27;5.07;;;;;;;;;;5076408;28;20228;-66
2023/05/26 10:58:34;;;;;;;9.10;5.73;;;;;;;;;;5079124;28;20206;-66
2023/05/26 11:01:03;;;;;;;6.43;5.07;;;;;;;;;;5079553;28;20236;-66
2023/05/26 11:03:32;;;;;;;7.20;4.97;;;;;;;;;;5079700;28;20214;-66
2023/05/26 11:06:00;;;;;;;7.50;4.80;;;;;;;;;;5079807;28;20221;-66
2023/05/26 11:08:45;;;;;;;7.47;5.47;;;;;;;;;;5079687;28;20242;-65
2023/05/26 11:11:14;;;;;;;7.83;5.50;;;;;;;;;;5079914;28;20573;-64
2023/05/26 11:13:45;;;;;;;6.17;4.93;;;;;;;;;;5079868;28;20198;-65
2023/05/26 11:16:23;;;;;;;7.90;5.43;;;;;;;;;;5070439;28;20227;-65
2023/05/26 11:18:53;;;;;;;8.47;5.37;;;;;;;;;;5078390;28;20197;-64
2023/05/26 11:21:26;;;;;;;6.27;4.63;;;;;;;;;;5078347;28;20199;-64
2023/05/26 11:23:57;;;;;;;6.20;4.53;;;;;;;;;;5079180;28;20213;-66
2023/05/26 11:26:27;;;;;;;6.97;4.80;;;;;;;;;;5078642;28;20218;-66
2023/05/26 11:28:56;;;;;;;8.23;4.57;;;;;;;;;;5078989;28;20213;-66
2023/05/26 11:31:26;;;;;;;7.83;5.40;;;;;;;;;;5079221;28;20291;-65
2023/05/26 11:33:55;;;;;;;5.80;4.97;;;;;;;;;;5079368;28;20208;-66
2023/05/26 11:36:23;;;;;;;7.57;4.63;;;;;;;;;;5078748;28;20299;-64
2023/05/26 11:38:54;;;;;;;7.43;4.80;;;;;;;;;;5079177;28;20209;-66
2023/05/26 11:41:25;;;;;;;7.13;5.53;;;;;;;;;;5078834;28;20299;-65
2023/05/26 11:43:54;;;;;;;9.37;5.37;;;;;;;;;;5077858;28;20663;-65
2023/05/26 11:46:23;;;;;;;6.03;4.67;;;;;;;;;;5078681;28;20226;-66
2023/05/26 11:48:52;;;;;;;6.70;4.83;;;;;;;;;;5078761;28;20213;-66
2023/05/26 11:51:20;;;;;;;5.23;4.60;;;;;;;;;;5078722;28;20223;-65
2023/05/26 11:53:53;;;;;;;5.37;4.13;;;;;;;;;;5078521;28;20279;-66
2023/05/26 11:56:21;;;;;;;6.20;4.73;;;;;;;;;;5078117;28;20271;-65
2023/05/26 11:58:56;;;;;;;6.13;4.50;;;;;;;;;;5078693;28;20240;-65
2023/05/26 12:01:26;;;;;;;8.83;4.70;;;;;;;;;;5078405;28;20275;-65
2023/05/26 12:03:56;;;;;;;10.57;5.00;;;;;;;;;;5078486;28;20212;-65
2023/05/26 12:06:25;;;;;;;4.30;3.93;;;;;;;;;;5078281;28;20229;-65
2023/05/26 12:08:55;;;;;;;5.97;4.70;;;;;;;;;;5078324;28;20206;-65
2023/05/26 12:11:24;;;;;;;6.07;4.40;;;;;;;;;;5078324;28;20226;-65
2023/05/26 12:14:00;;;;;;;7.67;4.53;;;;;;;;;;5078222;28;20217;-65
2023/05/26 12:16:30;;;;;;;7.00;4.70;;;;;;;;;;5078089;28;20343;-65
2023/05/26 12:19:00;;;;;;;5.53;4.83;;;;;;;;;;5078495;28;20211;-66
2023/05/26 12:21:30;;;;;;;5.77;4.63;;;;;;;;;;5078133;28;20277;-66
2023/05/26 12:23:58;;;;;;;7.00;4.60;;;;;;;;;;5078536;28;20202;-65
2023/05/26 12:26:29;;;;;;;4.87;4.27;;;;;;;;;;5077762;28;20629;-65
2023/05/26 12:29:12;;;;;;;6.20;4.57;;;;;;;;;;5078064;28;20217;-65
2023/05/26 12:31:41;;;;;;;7.97;4.63;;;;;;;;;;5078441;28;20289;-65
2023/05/26 12:34:10;;;;;;;5.30;4.03;;;;;;;;;;5078044;28;20561;-65
2023/05/26 12:36:38;;;;;;;6.03;3.93;;;;;;;;;;5077825;28;20685;-65
2023/05/26 12:39:08;;;;;;;7.30;3.90;;;;;;;;;;5077731;28;20614;-65
2023/05/26 12:41:37;;;;;;;6.60;4.40;;;;;;;;;;5077817;28;20212;-66
2023/05/26 12:44:05;;;;;;;6.93;4.10;;;;;;;;;;5077796;28;20212;-65
2023/05/26 12:46:35;;;;;;;6.63;4.37;;;;;;;;;;5077979;28;20231;-65
2023/05/26 12:49:08;;;;;;;5.17;3.83;;;;;;;;;;5078020;28;20211;-65
2023/05/26 12:51:38;;;;;;;8.37;4.70;;;;;;;;;;5077768;28;20282;-65
2023/05/26 12:54:08;;;;;;;7.07;5.13;;;;;;;;;;5077898;28;20270;-66
2023/05/26 12:56:36;;;;;;;4.30;3.90;;;;;;;;;;5077104;28;20229;-65
2023/05/26 12:59:05;;;;;;;5.37;4.10;;;;;;;;;;5077760;28;20212;-66
2023/05/26 13:01:55;;;;;;;4.70;4.20;;;;;;;;;;5077559;28;20261;-65
2023/05/26 13:04:23;;;;;;;5.00;4.10;;;;;;;;;;5077705;28;20705;-65
2023/05/26 13:06:52;;;;;;;4.63;4.03;;;;;;;;;;5078090;28;20232;-66
2023/05/26 13:09:24;;;;;;;5.77;4.23;;;;;;;;;;5077730;28;20297;-66
2023/05/26 13:11:52;;;;;;;6.50;4.03;;;;;;;;;;5077616;28;20286;-65
2023/05/26 13:14:21;;;;;;;6.57;4.37;;;;;;;;;;5077671;28;20212;-66
2023/05/26 13:16:49;;;;;;;4.73;3.27;;;;;;;;;;5077351;28;20236;-66
2023/05/26 13:19:19;;;;;;;4.97;3.70;;;;;;;;;;5077693;28;20241;-66
2023/05/26 13:21:47;;;;;;;5.93;4.00;;;;;;;;;;5077519;28;20206;-65
2023/05/26 13:24:15;;;;;;;7.10;3.77;;;;;;;;;;5077351;28;20268;-66
2023/05/26 13:26:43;;;;;;;6.23;3.70;;;;;;;;;;5077123;28;20259;-65
2023/05/26 13:29:12;;;;;;;6.07;3.73;;;;;;;;;;5077708;28;20216;-65
2023/05/26 13:31:41;;;;;;;4.17;3.77;;;;;;;;;;5070074;28;20229;-65
2023/05/26 13:34:09;;;;;;;3.50;3.20;;;;;;;;;;5075491;28;20210;-65
2023/05/26 13:36:41;;;;;;;5.63;3.70;;;;;;;;;;5077434;28;20229;-65
2023/05/26 13:39:10;;;;;;;5.57;3.20;;;;;;;;;;5076998;28;20217;-66
2023/05/26 13:41:38;;;;;;;5.47;3.67;;;;;;;;;;5076873;28;20312;-65
2023/05/26 13:44:06;;;;;;;3.50;3.00;;;;;;;;;;5077444;28;20211;-65
2023/05/26 13:46:34;;;;;;;5.70;3.93;;;;;;;;;;5077119;28;20247;-64
2023/05/26 13:49:04;;;;;;;5.17;3.57;;;;;;;;;;5077572;28;20299;-65
2023/05/26 13:51:33;;;;;;;4.00;3.47;;;;;;;;;;5077091;28;20219;-64
2023/05/26 13:54:02;;;;;;;4.37;3.57;;;;;;;;;;5077388;28;20294;-66
2023/05/26 13:56:38;;;;;;;5.47;3.63;;;;;;;;;;5076640;28;20672;-64
2023/05/26 13:59:06;;;;;;;5.97;3.73;;;;;;;;;;5077335;28;20322;-64
2023/05/26 14:01:34;;;;;;;4.03;3.17;;;;;;;;;;5076912;28;20246;-65
2023/05/26 14:04:05;;;;;;;4.83;3.50;;;;;;;;;;5077103;28;20660;-65
2023/05/26 14:06:35;;;;;;;3.50;3.20;;;;;;;;;;5077132;28;20302;-65
2023/05/26 14:09:07;;;;;;;7.43;4.03;;;;;;;;;;5080560;28;20200;-65
2023/05/26 14:11:36;;;;;;;4.60;3.10;;;;;;;;;;5080761;28;20205;-65
2023/05/26 14:14:04;;;;;;;5.50;3.23;;;;;;;;;;5080898;28;20242;-66
2023/05/26 14:16:32;;;;;;;5.70;3.20;;;;;;;;;;5080768;28;20228;-66
2023/05/26 14:19:01;;;;;;;8.50;3.40;;;;;;;;;;5081235;28;20319;-65
2023/05/26 14:21:39;;;;;;;4.83;3.60;;;;;;;;;;5080640;28;20211;-65
2023/05/26 14:24:28;;;;;;;3.93;3.30;;;;;;;;;;5080481;28;20223;-65
2023/05/26 14:26:57;;;;;;;7.73;3.70;;;;;;;;;;5080020;28;20218;-65
2023/05/26 14:29:25;;;;;;;5.43;3.30;;;;;;;;;;5080328;28;20203;-65
2023/05/26 14:31:54;;;;;;;4.07;3.60;;;;;;;;;;5080533;28;20208;-66
2023/05/26 14:34:22;;;;;;;4.63;3.17;;;;;;;;;;5080166;28;20681;-66
2023/05/26 14:36:50;;;;;;;6.27;4.13;;;;;;;;;;5080264;28;20319;-66
2023/05/26 14:39:18;;;;;;;5.50;3.30;;;;;;;;;;5080171;28;20284;-65
2023/05/26 14:41:48;;;;;;;5.43;3.53;;;;;;;;;;5079760;28;20637;-64
2023/05/26 14:44:16;;;;;;;5.53;3.23;;;;;;;;;;5079950;28;20202;-64
2023/05/26 14:46:44;;;;;;;5.40;3.27;;;;;;;;;;5080212;28;20234;-65
2023/05/26 14:49:13;;;;;;;3.57;2.87;;;;;;;;;;5079879;28;20285;-65
2023/05/26 14:51:41;;;;;;;4.97;3.07;;;;;;;;;;5080048;28;20218;-65
2023/05/26 14:54:09;;;;;;;5.17;3.00;;;;;;;;;;5080036;28;20205;-65